.
WxDataArchive / Data Records for 2006-07-05
2006-07-04 July 2006 2006-07-06

Data Records for Wednesday, 05 July 2006

Time	Temp	Chill	HIndex	Humid	Dewpt	 Wind 	HiWind	WindDir	Rain 	Barom 
-----	----	-----	------	-----	-----	------	------	-------	-----	----- 
00:00	65.2	65.2	65.2	63	52.3	0	0	---	0.00	29.964 
00:05	65.0	65.0	65.0	64	52.5	0	0	---	0.00	29.964 
00:10	64.5	64.5	64.5	65	52.5	0	0	---	0.00	29.964 
00:15	64.3	64.3	64.3	65	52.3	0	0	---	0.00	29.970 
00:20	64.3	64.3	64.3	65	52.3	0	1	338	0.00	29.970 
00:25	64.3	64.3	64.3	65	52.3	0	1	338	0.00	29.970 
00:30	64.2	64.2	64.2	65	52.2	0	1	338	0.00	29.972 
00:35	64.0	64.0	64.0	65	52.0	0	0	---	0.00	29.972 
00:40	63.9	63.9	63.9	66	52.3	0	0	---	0.00	29.972 
00:45	63.7	63.7	63.7	66	52.1	0	1	338	0.00	29.975 
00:50	63.5	63.5	63.5	67	52.3	0	1	338	0.00	29.975 
00:55	63.4	63.4	63.4	67	52.2	0	0	---	0.00	29.975 
01:00	63.2	63.2	63.2	68	52.5	0	0	---	0.00	29.978 
01:05	63.1	63.1	63.1	69	52.8	0	0	---	0.00	29.978 
01:10	62.9	62.9	62.9	69	52.6	0	1	338	0.00	29.978 
01:15	62.7	62.7	62.7	69	52.4	0	0	---	0.00	29.978 
01:20	62.6	62.6	62.6	70	52.7	0	1	338	0.00	29.978 
01:25	62.4	62.4	62.4	70	52.5	0	1	338	0.00	29.978 
01:30	62.4	62.4	62.4	70	52.5	0	1	338	0.00	29.977 
01:35	62.4	62.4	62.4	70	52.5	0	1	338	0.00	29.977 
01:40	62.6	62.6	62.6	70	52.7	0	1	338	0.00	29.977 
01:45	62.6	62.6	62.6	70	52.7	0	1	338	0.00	29.977 
01:50	62.6	62.6	62.6	70	52.7	0	1	338	0.00	29.977 
01:55	62.6	62.6	62.6	71	53.1	0	1	338	0.00	29.977 
02:00	62.7	62.7	62.7	71	53.2	0	1	338	0.00	29.977 
02:05	62.7	62.7	62.7	71	53.2	0	2	338	0.00	29.977 
02:10	62.7	62.7	62.7	71	53.2	0	1	338	0.00	29.977 
02:15	62.9	62.9	62.9	71	53.3	0	2	338	0.00	29.982 
02:20	63.1	63.1	63.1	71	53.5	0	2	22	0.00	29.982 
02:25	63.2	63.2	63.2	70	53.2	0	3	270	0.00	29.982 
02:30	63.2	63.2	63.2	70	53.2	0	2	225	0.00	29.986 
02:35	63.1	63.1	63.1	70	53.2	0	3	180	0.00	29.986 
02:40	62.9	62.9	62.9	70	53.0	0	2	202	0.00	29.986 
02:45	62.7	62.7	62.7	70	52.8	0	1	202	0.00	29.984 
02:50	62.9	62.9	62.9	69	52.6	0	2	202	0.00	29.984 
02:55	62.7	62.7	62.7	69	52.4	0	1	225	0.00	29.984 
03:00	62.6	62.6	62.6	69	52.3	0	1	225	0.00	29.990 
03:05	62.4	62.4	62.4	69	52.1	0	2	180	0.00	29.990 
03:10	62.3	62.3	62.3	69	52.0	0	2	158	0.00	29.990 
03:15	62.1	62.1	62.1	70	52.2	0	1	158	0.00	29.996 
03:20	61.8	61.8	61.8	69	51.5	0	1	158	0.00	29.996 
03:25	61.6	61.6	61.6	70	51.7	0	1	158	0.00	29.996 
03:30	61.5	61.5	61.5	70	51.6	0	1	158	0.00	29.995 
03:35	61.2	61.2	61.2	70	51.3	0	1	158	0.00	29.995 
03:40	60.9	60.9	60.9	70	51.0	0	3	158	0.00	29.995 
03:45	60.7	60.7	60.7	69	50.5	0	2	90	0.00	29.996 
03:50	60.5	60.5	60.5	70	50.7	0	0	---	0.00	29.996 
03:55	60.4	60.4	60.4	70	50.6	0	2	90	0.00	29.996 
04:00	60.2	60.2	60.2	71	50.8	0	0	---	0.00	29.998 
04:05	60.1	60.1	60.1	71	50.7	0	0	---	0.00	29.998 
04:10	59.9	59.9	59.9	71	50.5	0	1	90	0.00	29.998 
04:15	59.6	59.6	59.6	72	50.6	0	0	---	0.00	29.995 
04:20	59.5	59.5	59.5	72	50.5	0	0	---	0.00	29.995 
04:25	59.5	59.5	59.5	72	50.5	0	1	90	0.00	29.995 
04:30	59.5	59.5	59.5	72	50.5	0	1	90	0.00	29.995 
04:35	59.5	59.5	59.5	72	50.5	0	1	90	0.00	29.995 
04:40	59.3	59.3	59.3	72	50.3	0	1	90	0.00	29.995 
04:45	59.3	59.3	59.3	72	50.3	0	0	---	0.00	29.999 
04:50	59.2	59.2	59.2	73	50.5	0	0	---	0.00	29.999 
04:55	59.0	59.0	59.0	73	50.4	0	0	---	0.00	29.999 
05:00	59.0	59.0	59.0	73	50.4	0	0	---	0.00	29.996 
05:05	59.0	59.0	59.0	73	50.4	0	2	90	0.00	29.996 
05:10	59.2	59.2	59.2	73	50.5	0	0	---	0.00	29.996 
05:15	59.3	59.3	59.3	73	50.6	0	2	90	0.00	29.997 
05:20	59.3	59.3	59.3	72	50.3	0	1	90	0.00	29.997 
05:25	59.3	59.3	59.3	72	50.3	0	1	90	0.00	29.997 
05:30	59.3	59.3	59.3	72	50.3	0	2	90	0.00	29.995 
05:35	59.3	59.3	59.3	73	50.6	0	1	22	0.00	29.995 
05:40	59.2	59.2	59.2	73	50.5	0	1	22	0.00	29.995 
05:45	59.0	59.0	59.0	73	50.4	0	1	22	0.00	30.002 
05:50	58.9	58.9	58.9	74	50.6	0	0	---	0.00	30.002 
05:55	58.7	58.7	58.7	74	50.4	0	1	22	0.00	30.002 
06:00	58.6	58.6	58.6	74	50.3	0	1	22	0.00	30.006 
06:05	58.4	58.4	58.4	74	50.1	0	0	---	0.00	30.006 
06:10	58.3	58.3	58.3	75	50.4	0	1	22	0.00	30.006 
06:15	58.3	58.3	58.3	75	50.4	0	3	135	0.00	30.010 
06:20	58.1	58.1	58.1	75	50.2	0	1	135	0.00	30.010 
06:25	58.1	58.1	58.1	76	50.6	0	0	---	0.00	30.010 
06:30	58.0	58.0	58.0	76	50.5	0	1	158	0.00	30.012 
06:35	58.0	58.0	58.0	76	50.5	0	0	---	0.00	30.012 
06:40	57.8	57.8	57.8	76	50.3	0	0	---	0.00	30.012 
06:45	57.8	57.8	57.8	77	50.6	0	1	158	0.00	30.013 
06:50	58.0	58.0	58.0	76	50.5	0	1	158	0.00	30.013 
06:55	58.1	58.1	58.1	77	50.9	0	1	158	0.00	30.013 
07:00	58.3	58.3	58.3	76	50.8	0	1	158	0.00	30.018 
07:05	58.4	58.4	58.4	76	50.9	0	1	158	0.00	30.018 
07:10	58.4	58.4	58.4	76	50.9	0	1	158	0.00	30.018 
07:15	58.6	58.6	58.6	75	50.7	0	2	158	0.00	30.025 
07:20	58.6	58.6	58.6	75	50.7	0	1	158	0.00	30.025 
07:25	58.6	58.6	58.6	74	50.3	0	1	158	0.00	30.025 
07:30	58.7	58.7	58.7	74	50.4	0	2	158	0.00	30.028 
07:35	58.9	58.9	58.9	73	50.3	0	2	158	0.00	30.028 
07:40	59.3	59.3	59.3	72	50.3	0	2	225	0.00	30.028 
07:45	59.9	59.9	59.9	71	50.5	0	1	202	0.00	30.035 
07:50	60.5	60.5	60.5	69	50.3	0	1	202	0.00	30.035 
07:55	61.3	61.3	61.3	65	49.4	1	4	90	0.00	30.035 
08:00	61.8	61.8	61.8	66	50.3	1	3	90	0.00	30.038 
08:05	62.3	62.3	62.3	64	50.0	1	5	90	0.00	30.038 
08:10	62.6	62.6	62.6	63	49.8	0	1	90	0.00	30.038 
08:15	62.7	62.7	62.7	61	49.1	1	4	90	0.00	30.042 
08:20	63.1	63.1	63.1	60	49.0	1	4	112	0.00	30.042 
08:25	63.4	63.4	63.4	58	48.4	1	4	112	0.00	30.042 
08:30	63.9	63.9	63.9	60	49.7	1	5	68	0.00	30.045 
08:35	64.3	64.3	64.3	58	49.2	1	4	90	0.00	30.045 
08:40	64.7	64.7	64.7	56	48.6	1	4	135	0.00	30.045 
08:45	64.7	64.7	64.7	54	47.7	3	5	90	0.00	30.054 
08:50	64.8	64.8	64.8	53	47.3	1	5	90	0.00	30.054 
08:55	64.8	64.8	64.8	53	47.3	1	5	292	0.00	30.054 
09:00	65.3	65.3	65.3	51	46.7	2	4	90	0.00	30.058 
09:05	65.6	65.6	65.6	52	47.5	1	5	90	0.00	30.058 
09:10	65.8	65.8	65.8	51	47.2	2	5	68	0.00	30.058 
09:15	65.8	65.8	65.8	54	48.7	3	7	90	0.00	30.064 
09:20	66.1	66.1	66.1	54	49.0	1	4	68	0.00	30.064 
09:25	66.4	66.4	66.4	50	47.2	2	5	112	0.00	30.064 
09:30	66.8	66.8	66.8	48	46.5	2	4	90	0.00	30.065 
09:35	66.9	66.9	66.9	50	47.6	1	5	68	0.00	30.065 
09:40	67.4	67.4	67.4	50	48.1	2	5	90	0.00	30.065 
09:45	67.6	67.6	67.6	48	47.2	2	5	112	0.00	30.069 
09:50	67.6	67.6	67.6	46	46.1	1	7	90	0.00	30.069 
09:55	68.1	68.1	68.1	48	47.7	2	6	112	0.00	30.069 
10:00	68.1	68.1	68.1	47	47.1	2	6	112	0.00	30.073 
10:05	68.4	68.4	68.4	46	46.8	1	3	315	0.00	30.073 
10:10	69.1	69.1	69.1	46	47.4	2	5	90	0.00	30.073 
10:15	69.1	69.1	69.1	47	48.0	3	6	90	0.00	30.077 
10:20	69.4	69.4	69.4	46	47.7	1	6	45	0.00	30.077 
10:25	69.8	69.8	69.8	47	48.6	1	5	90	0.00	30.077 
10:30	69.6	69.6	69.6	44	46.7	1	6	112	0.00	30.080 
10:35	69.6	69.6	69.6	44	46.7	2	6	90	0.00	30.080 
10:40	69.9	69.9	69.9	46	48.2	2	5	112	0.00	30.080 
10:45	70.1	70.1	70.1	44	47.2	3	7	112	0.00	30.080 
10:50	69.9	69.9	69.9	46	48.2	3	9	90	0.00	30.080 
10:55	70.1	70.1	70.1	43	46.6	2	7	112	0.00	30.080 
11:00	70.4	70.4	70.4	43	46.8	2	6	112	0.00	30.078 
11:05	70.9	70.9	70.9	42	46.6	3	7	90	0.00	30.078 
11:10	70.8	70.8	70.8	40	45.3	3	10	112	0.00	30.078 
11:15	70.8	70.8	70.8	42	46.6	3	10	90	0.00	30.080 
11:20	70.8	70.8	70.8	41	45.9	3	6	112	0.00	30.080 
11:25	71.3	71.3	71.3	48	50.6	2	5	112	0.00	30.080 
11:30	72.0	72.0	72.0	42	47.6	2	5	90	0.00	30.078 
11:35	72.0	72.0	72.0	42	47.6	2	9	112	0.00	30.078 
11:40	71.5	71.5	71.5	42	47.2	2	5	292	0.00	30.078 
11:45	71.8	71.8	71.8	41	46.8	1	3	45	0.00	30.078 
11:50	72.1	72.1	72.1	40	46.4	1	4	112	0.00	30.078 
11:55	72.5	72.5	72.5	46	50.5	2	6	90	0.00	30.078 
12:00	72.1	72.1	72.1	40	46.4	2	9	292	0.00	30.078 
12:05	72.1	72.1	72.1	42	47.7	1	4	270	0.00	30.078 
12:10	72.7	72.7	72.7	42	48.3	1	4	135	0.00	30.078 
12:15	73.2	73.2	73.2	43	49.3	1	5	90	0.00	30.083 
12:20	73.0	73.0	73.0	42	48.5	2	5	90	0.00	30.083 
12:25	73.0	73.0	73.0	38	45.9	2	9	90	0.00	30.083 
12:30	73.3	73.3	73.3	37	45.4	2	7	158	0.00	30.081 
12:35	73.5	73.5	73.5	39	47.0	2	5	135	0.00	30.081 
12:40	73.9	73.9	73.9	43	50.0	2	10	90	0.00	30.081 
12:45	73.9	73.9	73.9	42	49.3	2	10	90	0.00	30.080 
12:50	73.3	73.3	73.3	43	49.4	1	4	90	0.00	30.080 
12:55	73.3	73.3	73.3	40	47.5	1	4	45	0.00	30.080 
13:00	73.0	73.0	73.0	38	45.9	2	4	338	0.00	30.077 
13:05	72.8	72.8	72.8	41	47.7	2	5	22	0.00	30.077 
13:10	72.7	72.7	72.7	41	47.6	2	6	292	0.00	30.077 
13:15	73.0	73.0	73.0	39	46.6	2	4	0	0.00	30.074 
13:20	73.3	73.3	73.3	40	47.5	1	5	270	0.00	30.074 
13:25	73.7	73.7	73.7	41	48.5	1	4	292	0.00	30.074 
13:30	74.2	74.2	74.2	40	48.3	1	4	315	0.00	30.069 
13:35	74.2	74.2	74.2	41	49.0	2	5	315	0.00	30.069 
13:40	73.7	73.7	73.7	39	47.2	2	5	45	0.00	30.069 
13:45	73.5	73.5	73.5	41	48.3	2	6	68	0.00	30.070 
13:50	73.7	73.7	73.7	37	45.8	1	4	292	0.00	30.070 
13:55	74.0	74.0	74.0	43	50.1	2	6	112	0.00	30.070 
14:00	73.5	73.5	73.5	39	47.0	2	5	315	0.00	30.062 
14:05	73.3	73.3	73.3	39	46.8	2	6	315	0.00	30.062 
14:10	73.2	73.2	73.2	40	47.4	2	7	315	0.00	30.062 
14:15	73.7	73.7	73.7	39	47.2	1	7	68	0.00	30.060 
14:20	73.9	73.9	73.9	41	48.7	2	6	45	0.00	30.060 
14:25	73.9	73.9	73.9	41	48.7	2	5	90	0.00	30.060 
14:30	74.6	74.6	74.6	38	47.3	1	6	68	0.00	30.055 
14:35	74.4	74.4	74.4	42	49.8	1	6	68	0.00	30.055 
14:40	74.4	74.4	74.4	38	47.1	1	4	270	0.00	30.055 
14:45	74.6	74.6	74.6	39	48.0	1	5	90	0.00	30.051 
14:50	74.7	74.7	74.7	40	48.8	1	5	158	0.00	30.051 
14:55	74.9	74.9	74.9	39	48.3	2	6	45	0.00	30.051 
15:00	74.9	74.9	74.9	40	48.9	1	4	22	0.00	30.045 
15:05	74.9	74.9	74.9	39	48.3	2	6	22	0.00	30.045 
15:10	74.7	74.7	74.7	37	46.7	1	5	292	0.00	30.045 
15:15	75.1	75.1	77.6	43	51.1	2	9	292	0.00	30.050 
15:20	74.7	74.7	74.7	37	46.7	2	5	338	0.00	30.050 
15:25	74.4	74.4	74.4	38	47.1	2	5	292	0.00	30.050 
15:30	74.7	74.7	74.7	39	48.1	2	6	270	0.00	30.047 
15:35	74.7	74.7	74.7	35	45.2	2	6	292	0.00	30.047 
15:40	74.9	74.9	74.9	46	52.7	1	5	338	0.00	30.047 
15:45	74.7	74.7	74.7	40	48.8	2	5	22	0.00	30.049 
15:50	75.1	75.1	77.5	40	49.1	2	5	45	0.00	30.049 
15:55	75.4	75.4	77.5	37	47.3	1	5	292	0.00	30.049 
16:00	75.4	75.4	77.5	38	48.0	2	6	90	0.00	30.046 
16:05	75.4	75.4	77.6	39	48.7	2	7	292	0.00	30.046 
16:10	75.3	75.3	77.5	39	48.6	1	4	22	0.00	30.046 
16:15	75.4	75.4	77.6	39	48.7	1	6	292	0.00	30.044 
16:20	75.3	75.3	77.5	39	48.6	2	10	338	0.00	30.044 
16:25	75.1	75.1	77.6	42	50.4	1	4	292	0.00	30.044 
16:30	74.9	74.9	74.9	40	48.9	2	6	270	0.00	30.045 
16:35	74.6	74.6	74.6	42	50.0	2	5	315	0.00	30.045 
16:40	75.1	75.1	77.6	41	49.8	1	4	22	0.00	30.045 
16:45	74.9	74.9	74.9	38	47.6	2	6	0	0.00	30.045 
16:50	74.7	74.7	74.7	41	49.4	1	6	45	0.00	30.045 
16:55	74.9	74.9	74.9	39	48.3	1	4	315	0.00	30.045 
17:00	74.7	74.7	74.7	40	48.8	2	9	270	0.00	30.046 
17:05	74.6	74.6	74.6	38	47.3	2	4	338	0.00	30.046 
17:10	74.9	74.9	74.9	38	47.6	1	5	292	0.00	30.046 
17:15	74.9	74.9	74.9	40	48.9	2	5	292	0.00	30.046 
17:20	74.0	74.0	74.0	39	47.5	1	5	112	0.00	30.046 
17:25	73.7	73.7	73.7	43	49.8	2	7	315	0.00	30.046 
17:30	74.4	74.4	74.4	40	48.5	3	7	90	0.00	30.047 
17:35	74.7	74.7	74.7	43	50.7	2	7	112	0.00	30.047 
17:40	75.3	75.3	77.6	41	50.0	1	5	68	0.00	30.047 
17:45	75.3	75.3	77.5	39	48.6	2	9	90	0.00	30.046 
17:50	74.7	74.7	74.7	42	50.1	1	6	45	0.00	30.046 
17:55	74.4	74.4	74.4	42	49.8	1	5	292	0.00	30.046 
18:00	74.4	74.4	74.4	41	49.1	1	4	315	0.00	30.048 
18:05	74.6	74.6	74.6	39	48.0	1	4	270	0.00	30.048 
18:10	74.6	74.6	74.6	41	49.3	1	3	45	0.00	30.048 
18:15	74.7	74.7	74.7	38	47.4	2	4	90	0.00	30.046 
18:20	74.7	74.7	74.7	39	48.1	1	4	270	0.00	30.046 
18:25	74.7	74.7	74.7	39	48.1	1	3	315	0.00	30.046 
18:30	74.9	74.9	74.9	38	47.6	0	2	315	0.00	30.047 
18:35	74.6	74.6	74.6	38	47.3	1	6	248	0.00	30.047 
18:40	74.0	74.0	74.0	39	47.5	1	4	112	0.00	30.047 
18:45	73.9	73.9	73.9	41	48.7	2	5	112	0.00	30.048 
18:50	73.9	73.9	73.9	38	46.7	1	4	45	0.00	30.048 
18:55	73.7	73.7	73.7	40	47.9	1	3	112	0.00	30.048 
19:00	73.5	73.5	73.5	41	48.3	1	4	292	0.00	30.048 
19:05	73.2	73.2	73.2	42	48.7	1	3	112	0.00	30.048 
19:10	72.7	72.7	72.7	41	47.6	0	4	45	0.00	30.048 
19:15	72.7	72.7	72.7	43	48.9	1	5	68	0.00	30.047 
19:20	72.7	72.7	72.7	43	48.9	0	2	112	0.00	30.047 
19:25	72.8	72.8	72.8	40	47.1	1	5	90	0.00	30.047 
19:30	72.7	72.7	72.7	41	47.6	1	6	112	0.00	30.048 
19:35	72.5	72.5	72.5	41	47.4	1	3	90	0.00	30.048 
19:40	72.3	72.3	72.3	43	48.5	1	3	292	0.00	30.048 
19:45	72.1	72.1	72.1	40	46.4	1	6	112	0.00	30.050 
19:50	72.0	72.0	72.0	42	47.6	0	2	112	0.00	30.050 
19:55	71.8	71.8	71.8	42	47.5	0	2	112	0.00	30.050 
20:00	71.6	71.6	71.6	43	47.9	0	2	112	0.00	30.051 
20:05	71.5	71.5	71.5	43	47.8	0	2	90	0.00	30.051 
20:10	71.3	71.3	71.3	44	48.2	0	3	292	0.00	30.051 
20:15	70.9	70.9	70.9	44	47.9	0	2	292	0.00	30.052 
20:20	70.6	70.6	70.6	46	48.8	0	1	292	0.00	30.052 
20:25	70.3	70.3	70.3	46	48.5	0	0	---	0.00	30.052 
20:30	69.9	69.9	69.9	46	48.2	0	0	---	0.00	30.053 
20:35	69.8	69.8	69.8	47	48.6	0	1	292	0.00	30.053 
20:40	69.8	69.8	69.8	47	48.6	0	4	292	0.00	30.053 
20:45	69.6	69.6	69.6	46	47.9	0	1	22	0.00	30.059 
20:50	69.4	69.4	69.4	47	48.3	0	1	22	0.00	30.059 
20:55	69.1	69.1	69.1	48	48.6	0	0	---	0.00	30.059 
21:00	68.8	68.8	68.8	48	48.3	0	0	---	0.00	30.058 
21:05	68.4	68.4	68.4	48	47.9	0	0	---	0.00	30.058 
21:10	68.1	68.1	68.1	49	48.2	0	0	---	0.00	30.058 
21:15	67.8	67.8	67.8	50	48.5	0	0	---	0.00	30.060 
21:20	67.3	67.3	67.3	51	48.5	0	0	---	0.00	30.060 
21:25	66.9	66.9	66.9	53	49.2	0	0	---	0.00	30.060 
21:30	66.4	66.4	66.4	54	49.2	0	0	---	0.00	30.064 
21:35	66.1	66.1	66.1	55	49.5	0	0	---	0.00	30.064 
21:40	65.8	65.8	65.8	57	50.1	0	0	---	0.00	30.064 
21:45	65.6	65.6	65.6	58	50.4	0	0	---	0.00	30.067 
21:50	65.5	65.5	65.5	59	50.8	0	0	---	0.00	30.067 
21:55	65.5	65.5	65.5	58	50.3	0	0	---	0.00	30.067 
22:00	65.5	65.5	65.5	57	49.9	0	0	---	0.00	30.072 
22:05	65.5	65.5	65.5	57	49.9	0	0	---	0.00	30.072 
22:10	65.5	65.5	65.5	57	49.9	0	0	---	0.00	30.072 
22:15	65.3	65.3	65.3	58	50.1	0	0	---	0.00	30.076 
22:20	65.2	65.2	65.2	59	50.5	0	0	---	0.00	30.076 
22:25	64.8	64.8	64.8	59	50.1	0	0	---	0.00	30.076 
22:30	64.7	64.7	64.7	59	50.0	0	0	---	0.00	30.081 
22:35	64.5	64.5	64.5	60	50.3	0	0	---	0.00	30.081 
22:40	64.3	64.3	64.3	61	50.6	0	0	---	0.00	30.081 
22:45	64.0	64.0	64.0	62	50.7	0	0	---	0.00	30.090 
22:50	63.7	63.7	63.7	63	50.9	0	0	---	0.00	30.090 
22:55	63.5	63.5	63.5	64	51.1	0	0	---	0.00	30.090 
23:00	63.4	63.4	63.4	64	51.0	0	0	---	0.00	30.096 
23:05	63.2	63.2	63.2	65	51.2	0	0	---	0.00	30.096 
23:10	63.2	63.2	63.2	65	51.2	0	0	---	0.00	30.096 
23:15	63.1	63.1	63.1	66	51.6	0	0	---	0.00	30.094 
23:20	62.9	62.9	62.9	66	51.4	0	0	---	0.00	30.094 
23:25	62.6	62.6	62.6	67	51.5	0	0	---	0.00	30.094 
23:30	62.4	62.4	62.4	68	51.7	0	0	---	0.00	30.098 
23:35	62.3	62.3	62.3	68	51.6	0	0	---	0.00	30.098 
23:40	62.1	62.1	62.1	69	51.8	0	0	---	0.00	30.098 
23:45	62.1	62.1	62.1	69	51.8	0	0	---	0.00	30.099 
23:50	62.1	62.1	62.1	69	51.8	0	0	---	0.00	30.099 
23:55	62.3	62.3	62.3	68	51.6	0	0	---	0.00	30.099 

CoCoRaHS
IN-AL-39
A2 Web Hosting
Creative Commons License
GoDaddy
Look for:

loaded 2017-12-11 14:37:06 • last modified 2010-11-18 10:43:29
Privacy PolicyDisclaimer
• wx.awcolley.com is powered by PmWiki v.2002016 •
• all content (unless otherwise noted) © 2017 A W Colley